Главная страница
METAR-TAF:

METAR-TAF

Аэропорты :

Костанай, Казахстан

широта: 53-12-23N, долгота: 063-33-03E, высота над уровнем моря: 182 м

Текущие метеонаблюдения

Эта сводка был подготовлена 18 минут назад, в 09:00 UTC
Ветер 17 Узел от западный-юго-западный
Температура 15°C
Влажность 63%
Давление 1009 hPa
Видимость 10 км и более
Отдельные облака на высоте 5000 фута, Кучево-дождевые.

METAR: UAUU 200900Z 24009MPS 9999 SCT050CB 15/08 Q1009 R33/290046 NOSIG RMK QFE741/0989

Время: 15:18 (09:18 UTC)

Прогноз

Эта сводка был подготовлена 1 час и 18 минут назад, в 08:00 UTC
Прогноз действительный с 20-го 09 UTC до 20-го 18 UTC
Ветер 16 Узел от западный-юго-западный
Видимость: 6000 м
Отдельные облака на высоте 600 фута
Рассеянная облачность на высоте 2000 фута, Кучево-дождевые.
дымка
временами
С 20-го 09 UTC до 20-го 12 UTC
Видимость: 3000 м
небольшие ливневые дожди, дымка

TAF: UAUU 200800Z 2009/2018 24008MPS 6000 BR SCT006 BKN020CB TEMPO 2009/2012 3000 -SHRA BR

Метеонаблюдения и прогнозы для более 4000 аэропортов (сводки METAR и TAF).

Имеющиеся станции представлены на карте желтыми и красными точками.

Чтобы увидеть название станции, наведите на нее мышь.

Затем щелкните, чтобы увидеть метеонаблюдения и метеопрогнозы.

Управление картой: чтобы увеличить масштаб, щелкните зеленые кнопки с черным крестиком; чтобы уменьшить масштаб, щелкните зеленую кнопку с тире; для просмотра соседних карт щелкайте зеленые стрелки.


METAR-TAF: